sensor_id;sensor_type;location;lat;lon;timestamp;P1;durP1;ratioP1;P2;durP2;ratioP2
18793;SDS011;29610;49.022;12.114;2023-04-24T00:01:15;15.73;;;6.03;;
18793;SDS011;29610;49.022;12.114;2023-04-24T00:04:06;10.97;;;5.63;;
18793;SDS011;29610;49.022;12.114;2023-04-24T00:06:59;17.83;;;6.50;;
18793;SDS011;29610;49.022;12.114;2023-04-24T00:09:48;15.70;;;6.93;;
18793;SDS011;29610;49.022;12.114;2023-04-24T00:12:37;14.13;;;6.50;;
18793;SDS011;29610;49.022;12.114;2023-04-24T00:15:26;16.70;;;7.57;;
18793;SDS011;29610;49.022;12.114;2023-04-24T00:18:15;16.27;;;7.83;;
18793;SDS011;29610;49.022;12.114;2023-04-24T00:21:04;18.40;;;8.13;;
18793;SDS011;29610;49.022;12.114;2023-04-24T00:23:55;14.70;;;7.70;;
18793;SDS011;29610;49.022;12.114;2023-04-24T00:26:44;17.37;;;8.53;;
18793;SDS011;29610;49.022;12.114;2023-04-24T00:29:33;16.80;;;7.90;;
18793;SDS011;29610;49.022;12.114;2023-04-24T00:32:22;18.13;;;8.93;;
18793;SDS011;29610;49.022;12.114;2023-04-24T00:35:10;17.20;;;9.70;;
18793;SDS011;29610;49.022;12.114;2023-04-24T00:37:59;19.47;;;8.60;;
18793;SDS011;29610;49.022;12.114;2023-04-24T00:40:49;18.73;;;8.47;;
18793;SDS011;29610;49.022;12.114;2023-04-24T00:43:39;19.53;;;9.30;;
18793;SDS011;29610;49.022;12.114;2023-04-24T00:46:28;20.37;;;9.50;;
18793;SDS011;29610;49.022;12.114;2023-04-24T00:49:19;18.30;;;9.20;;
18793;SDS011;29610;49.022;12.114;2023-04-24T00:52:09;18.83;;;9.77;;
18793;SDS011;29610;49.022;12.114;2023-04-24T00:54:59;20.60;;;9.80;;
18793;SDS011;29610;49.022;12.114;2023-04-24T00:57:49;18.90;;;9.23;;
18793;SDS011;29610;49.022;12.114;2023-04-24T01:00:39;21.03;;;10.20;;
18793;SDS011;29610;49.022;12.114;2023-04-24T01:03:29;20.20;;;9.57;;
18793;SDS011;29610;49.022;12.114;2023-04-24T01:06:19;17.60;;;9.53;;
18793;SDS011;29610;49.022;12.114;2023-04-24T01:09:10;22.67;;;10.40;;
18793;SDS011;29610;49.022;12.114;2023-04-24T01:12:01;19.73;;;10.60;;
18793;SDS011;29610;49.022;12.114;2023-04-24T01:14:52;21.50;;;10.70;;
18793;SDS011;29610;49.022;12.114;2023-04-24T01:17:41;18.87;;;10.23;;
18793;SDS011;29610;49.022;12.114;2023-04-24T01:20:30;21.80;;;10.63;;
18793;SDS011;29610;49.022;12.114;2023-04-24T01:23:24;22.80;;;10.47;;
18793;SDS011;29610;49.022;12.114;2023-04-24T01:26:15;18.90;;;11.33;;
18793;SDS011;29610;49.022;12.114;2023-04-24T01:29:06;19.60;;;10.20;;
18793;SDS011;29610;49.022;12.114;2023-04-24T01:31:57;23.30;;;11.20;;
18793;SDS011;29610;49.022;12.114;2023-04-24T01:34:55;19.30;;;11.37;;
18793;SDS011;29610;49.022;12.114;2023-04-24T01:37:44;21.57;;;10.90;;
18793;SDS011;29610;49.022;12.114;2023-04-24T01:40:35;24.60;;;11.70;;
18793;SDS011;29610;49.022;12.114;2023-04-24T01:43:24;25.30;;;12.23;;
18793;SDS011;29610;49.022;12.114;2023-04-24T01:46:13;21.60;;;11.13;;
18793;SDS011;29610;49.022;12.114;2023-04-24T01:49:02;22.90;;;13.73;;
18793;SDS011;29610;49.022;12.114;2023-04-24T01:51:52;20.67;;;11.63;;
18793;SDS011;29610;49.022;12.114;2023-04-24T01:54:41;23.97;;;12.77;;
18793;SDS011;29610;49.022;12.114;2023-04-24T01:57:31;22.40;;;11.30;;
18793;SDS011;29610;49.022;12.114;2023-04-24T02:00:21;27.63;;;10.90;;
18793;SDS011;29610;49.022;12.114;2023-04-24T02:03:12;24.90;;;12.50;;
18793;SDS011;29610;49.022;12.114;2023-04-24T02:06:02;24.03;;;12.10;;
18793;SDS011;29610;49.022;12.114;2023-04-24T02:08:51;22.23;;;12.23;;
18793;SDS011;29610;49.022;12.114;2023-04-24T02:11:41;21.80;;;12.90;;
18793;SDS011;29610;49.022;12.114;2023-04-24T02:14:32;26.93;;;13.17;;
18793;SDS011;29610;49.022;12.114;2023-04-24T02:17:20;27.03;;;13.57;;
18793;SDS011;29610;49.022;12.114;2023-04-24T02:20:10;24.00;;;13.80;;
18793;SDS011;29610;49.022;12.114;2023-04-24T02:22:59;22.63;;;12.70;;
18793;SDS011;29610;49.022;12.114;2023-04-24T02:25:48;26.50;;;13.70;;
18793;SDS011;29610;49.022;12.114;2023-04-24T02:28:37;27.77;;;14.10;;
18793;SDS011;29610;49.022;12.114;2023-04-24T02:31:27;23.60;;;12.03;;
18793;SDS011;29610;49.022;12.114;2023-04-24T02:34:16;27.07;;;14.10;;
18793;SDS011;29610;49.022;12.114;2023-04-24T02:37:05;28.33;;;14.47;;
18793;SDS011;29610;49.022;12.114;2023-04-24T02:39:56;28.83;;;14.63;;
18793;SDS011;29610;49.022;12.114;2023-04-24T02:42:45;25.00;;;13.73;;
18793;SDS011;29610;49.022;12.114;2023-04-24T02:45:34;25.87;;;15.37;;
18793;SDS011;29610;49.022;12.114;2023-04-24T02:48:24;27.90;;;14.17;;
18793;SDS011;29610;49.022;12.114;2023-04-24T02:51:13;31.40;;;16.17;;
18793;SDS011;29610;49.022;12.114;2023-04-24T02:54:02;29.30;;;14.90;;
18793;SDS011;29610;49.022;12.114;2023-04-24T02:56:51;33.90;;;14.43;;
18793;SDS011;29610;49.022;12.114;2023-04-24T02:59:40;26.83;;;14.50;;
18793;SDS011;29610;49.022;12.114;2023-04-24T03:02:30;28.73;;;15.03;;
18793;SDS011;29610;49.022;12.114;2023-04-24T03:05:20;30.33;;;14.10;;
18793;SDS011;29610;49.022;12.114;2023-04-24T03:08:09;32.10;;;15.10;;
18793;SDS011;29610;49.022;12.114;2023-04-24T03:10:58;30.30;;;14.50;;
18793;SDS011;29610;49.022;12.114;2023-04-24T03:13:47;32.20;;;15.43;;
18793;SDS011;29610;49.022;12.114;2023-04-24T03:16:36;28.73;;;15.50;;
18793;SDS011;29610;49.022;12.114;2023-04-24T03:19:26;27.50;;;14.37;;
18793;SDS011;29610;49.022;12.114;2023-04-24T03:22:25;30.43;;;13.90;;
18793;SDS011;29610;49.022;12.114;2023-04-24T03:25:15;32.07;;;16.77;;
18793;SDS011;29610;49.022;12.114;2023-04-24T03:28:04;30.90;;;15.77;;
18793;SDS011;29610;49.022;12.114;2023-04-24T03:30:59;33.37;;;15.90;;
18793;SDS011;29610;49.022;12.114;2023-04-24T03:33:52;27.80;;;14.20;;
18793;SDS011;29610;49.022;12.114;2023-04-24T03:36:41;28.57;;;14.10;;
18793;SDS011;29610;49.022;12.114;2023-04-24T03:39:32;32.10;;;13.83;;
18793;SDS011;29610;49.022;12.114;2023-04-24T03:42:21;24.40;;;12.17;;
18793;SDS011;29610;49.022;12.114;2023-04-24T03:45:14;35.50;;;14.20;;
18793;SDS011;29610;49.022;12.114;2023-04-24T03:48:07;25.90;;;14.10;;
18793;SDS011;29610;49.022;12.114;2023-04-24T03:50:56;26.70;;;12.70;;
18793;SDS011;29610;49.022;12.114;2023-04-24T03:53:45;24.87;;;12.00;;
18793;SDS011;29610;49.022;12.114;2023-04-24T03:56:39;24.00;;;12.10;;
18793;SDS011;29610;49.022;12.114;2023-04-24T03:59:31;28.50;;;14.23;;
18793;SDS011;29610;49.022;12.114;2023-04-24T04:02:30;21.57;;;12.50;;
18793;SDS011;29610;49.022;12.114;2023-04-24T04:05:19;26.93;;;12.40;;
18793;SDS011;29610;49.022;12.114;2023-04-24T04:08:08;24.70;;;12.80;;
18793;SDS011;29610;49.022;12.114;2023-04-24T04:10:57;24.80;;;12.93;;
18793;SDS011;29610;49.022;12.114;2023-04-24T04:13:49;29.13;;;12.97;;
18793;SDS011;29610;49.022;12.114;2023-04-24T04:16:41;24.23;;;12.30;;
18793;SDS011;29610;49.022;12.114;2023-04-24T04:19:30;21.63;;;12.70;;
18793;SDS011;29610;49.022;12.114;2023-04-24T04:22:19;23.03;;;12.20;;
18793;SDS011;29610;49.022;12.114;2023-04-24T04:25:10;24.53;;;13.10;;
18793;SDS011;29610;49.022;12.114;2023-04-24T04:28:00;27.60;;;13.07;;
18793;SDS011;29610;49.022;12.114;2023-04-24T04:30:50;29.27;;;14.67;;
18793;SDS011;29610;49.022;12.114;2023-04-24T04:33:42;24.73;;;13.10;;
18793;SDS011;29610;49.022;12.114;2023-04-24T04:36:31;22.90;;;12.63;;
18793;SDS011;29610;49.022;12.114;2023-04-24T04:39:50;25.67;;;13.80;;
18793;SDS011;29610;49.022;12.114;2023-04-24T04:42:43;33.40;;;15.07;;
18793;SDS011;29610;49.022;12.114;2023-04-24T04:45:34;25.93;;;14.33;;
18793;SDS011;29610;49.022;12.114;2023-04-24T04:48:40;25.20;;;13.73;;
18793;SDS011;29610;49.022;12.114;2023-04-24T04:51:30;34.17;;;14.37;;
18793;SDS011;29610;49.022;12.114;2023-04-24T04:54:20;26.17;;;14.17;;
18793;SDS011;29610;49.022;12.114;2023-04-24T04:57:08;28.60;;;12.73;;
18793;SDS011;29610;49.022;12.114;2023-04-24T04:59:59;24.20;;;13.87;;
18793;SDS011;29610;49.022;12.114;2023-04-24T05:03:00;24.87;;;12.53;;
18793;SDS011;29610;49.022;12.114;2023-04-24T05:06:10;24.50;;;12.70;;
18793;SDS011;29610;49.022;12.114;2023-04-24T05:09:00;28.30;;;13.03;;
18793;SDS011;29610;49.022;12.114;2023-04-24T05:12:01;24.17;;;13.73;;
18793;SDS011;29610;49.022;12.114;2023-04-24T05:14:55;30.90;;;11.63;;
18793;SDS011;29610;49.022;12.114;2023-04-24T05:17:45;21.77;;;12.03;;
18793;SDS011;29610;49.022;12.114;2023-04-24T05:20:34;22.87;;;12.20;;
18793;SDS011;29610;49.022;12.114;2023-04-24T05:23:27;22.13;;;11.17;;
18793;SDS011;29610;49.022;12.114;2023-04-24T05:26:17;22.00;;;12.00;;
18793;SDS011;29610;49.022;12.114;2023-04-24T05:29:06;17.73;;;9.57;;
18793;SDS011;29610;49.022;12.114;2023-04-24T05:31:55;28.73;;;10.57;;
18793;SDS011;29610;49.022;12.114;2023-04-24T05:34:45;17.33;;;10.00;;
18793;SDS011;29610;49.022;12.114;2023-04-24T05:37:34;21.13;;;10.30;;
18793;SDS011;29610;49.022;12.114;2023-04-24T05:40:28;19.80;;;9.03;;
18793;SDS011;29610;49.022;12.114;2023-04-24T05:43:17;17.00;;;9.67;;
18793;SDS011;29610;49.022;12.114;2023-04-24T05:46:06;19.20;;;10.30;;
18793;SDS011;29610;49.022;12.114;2023-04-24T05:48:58;17.50;;;8.93;;
18793;SDS011;29610;49.022;12.114;2023-04-24T05:51:50;14.60;;;8.37;;
18793;SDS011;29610;49.022;12.114;2023-04-24T05:54:39;16.60;;;8.03;;
18793;SDS011;29610;49.022;12.114;2023-04-24T05:57:34;15.63;;;7.90;;
18793;SDS011;29610;49.022;12.114;2023-04-24T06:00:24;20.73;;;8.40;;
18793;SDS011;29610;49.022;12.114;2023-04-24T06:03:20;13.43;;;7.33;;
18793;SDS011;29610;49.022;12.114;2023-04-24T06:06:09;12.37;;;7.07;;
18793;SDS011;29610;49.022;12.114;2023-04-24T06:09:01;11.17;;;6.40;;
18793;SDS011;29610;49.022;12.114;2023-04-24T06:11:51;13.83;;;7.47;;
18793;SDS011;29610;49.022;12.114;2023-04-24T06:14:45;13.40;;;6.37;;
18793;SDS011;29610;49.022;12.114;2023-04-24T06:17:45;13.37;;;6.70;;
18793;SDS011;29610;49.022;12.114;2023-04-24T06:20:37;13.67;;;6.93;;
18793;SDS011;29610;49.022;12.114;2023-04-24T06:23:29;18.20;;;5.93;;
18793;SDS011;29610;49.022;12.114;2023-04-24T06:26:20;15.83;;;6.70;;
18793;SDS011;29610;49.022;12.114;2023-04-24T06:29:11;15.00;;;7.23;;
18793;SDS011;29610;49.022;12.114;2023-04-24T06:32:02;13.87;;;5.97;;
18793;SDS011;29610;49.022;12.114;2023-04-24T06:34:52;14.80;;;6.60;;
18793;SDS011;29610;49.022;12.114;2023-04-24T06:37:41;12.67;;;6.00;;
18793;SDS011;29610;49.022;12.114;2023-04-24T06:40:34;10.53;;;5.77;;
18793;SDS011;29610;49.022;12.114;2023-04-24T06:43:23;11.60;;;5.53;;
18793;SDS011;29610;49.022;12.114;2023-04-24T06:46:13;10.83;;;5.40;;
18793;SDS011;29610;49.022;12.114;2023-04-24T06:49:03;12.00;;;5.07;;
18793;SDS011;29610;49.022;12.114;2023-04-24T06:51:52;10.47;;;4.73;;
18793;SDS011;29610;49.022;12.114;2023-04-24T06:54:41;9.37;;;4.50;;
18793;SDS011;29610;49.022;12.114;2023-04-24T06:57:30;12.00;;;4.43;;
18793;SDS011;29610;49.022;12.114;2023-04-24T07:00:20;9.10;;;4.00;;
18793;SDS011;29610;49.022;12.114;2023-04-24T07:03:11;8.27;;;3.63;;
18793;SDS011;29610;49.022;12.114;2023-04-24T07:06:01;9.07;;;4.10;;
18793;SDS011;29610;49.022;12.114;2023-04-24T07:08:52;10.57;;;3.53;;
18793;SDS011;29610;49.022;12.114;2023-04-24T07:11:42;12.10;;;3.60;;
18793;SDS011;29610;49.022;12.114;2023-04-24T07:14:32;9.03;;;3.00;;
18793;SDS011;29610;49.022;12.114;2023-04-24T07:17:21;7.60;;;3.20;;
18793;SDS011;29610;49.022;12.114;2023-04-24T07:20:11;7.20;;;2.87;;
18793;SDS011;29610;49.022;12.114;2023-04-24T07:23:03;9.83;;;2.77;;
18793;SDS011;29610;49.022;12.114;2023-04-24T07:25:52;7.90;;;2.50;;
18793;SDS011;29610;49.022;12.114;2023-04-24T07:28:41;8.20;;;2.50;;
18793;SDS011;29610;49.022;12.114;2023-04-24T07:31:30;6.53;;;1.90;;
18793;SDS011;29610;49.022;12.114;2023-04-24T07:34:19;6.40;;;1.90;;
18793;SDS011;29610;49.022;12.114;2023-04-24T07:37:08;7.70;;;2.23;;
18793;SDS011;29610;49.022;12.114;2023-04-24T07:39:59;6.30;;;1.87;;
18793;SDS011;29610;49.022;12.114;2023-04-24T07:42:47;6.50;;;1.67;;
18793;SDS011;29610;49.022;12.114;2023-04-24T07:45:37;7.57;;;1.80;;
18793;SDS011;29610;49.022;12.114;2023-04-24T07:48:26;7.23;;;1.57;;
18793;SDS011;29610;49.022;12.114;2023-04-24T07:51:15;6.37;;;1.70;;
18793;SDS011;29610;49.022;12.114;2023-04-24T07:54:04;7.90;;;1.53;;
18793;SDS011;29610;49.022;12.114;2023-04-24T07:56:55;6.67;;;1.50;;
18793;SDS011;29610;49.022;12.114;2023-04-24T07:59:44;7.40;;;1.80;;
18793;SDS011;29610;49.022;12.114;2023-04-24T08:02:34;7.07;;;1.47;;
18793;SDS011;29610;49.022;12.114;2023-04-24T08:05:23;6.30;;;1.40;;
18793;SDS011;29610;49.022;12.114;2023-04-24T08:08:14;7.03;;;1.40;;
18793;SDS011;29610;49.022;12.114;2023-04-24T08:11:03;14.80;;;1.83;;
18793;SDS011;29610;49.022;12.114;2023-04-24T08:13:53;6.23;;;1.30;;
18793;SDS011;29610;49.022;12.114;2023-04-24T08:16:42;6.60;;;1.23;;
18793;SDS011;29610;49.022;12.114;2023-04-24T08:19:33;6.23;;;1.30;;
18793;SDS011;29610;49.022;12.114;2023-04-24T08:22:21;5.80;;;1.07;;
18793;SDS011;29610;49.022;12.114;2023-04-24T08:25:10;6.70;;;1.70;;
18793;SDS011;29610;49.022;12.114;2023-04-24T08:28:01;6.70;;;1.40;;
18793;SDS011;29610;49.022;12.114;2023-04-24T08:30:53;7.00;;;1.60;;
18793;SDS011;29610;49.022;12.114;2023-04-24T08:33:42;6.30;;;1.27;;
18793;SDS011;29610;49.022;12.114;2023-04-24T08:36:32;6.30;;;1.20;;
18793;SDS011;29610;49.022;12.114;2023-04-24T08:39:33;7.57;;;1.30;;
18793;SDS011;29610;49.022;12.114;2023-04-24T08:42:23;10.13;;;1.30;;
18793;SDS011;29610;49.022;12.114;2023-04-24T08:45:12;6.67;;;1.10;;
18793;SDS011;29610;49.022;12.114;2023-04-24T08:48:02;6.90;;;1.50;;
18793;SDS011;29610;49.022;12.114;2023-04-24T08:51:09;6.73;;;2.00;;
18793;SDS011;29610;49.022;12.114;2023-04-24T08:53:59;6.20;;;1.20;;
18793;SDS011;29610;49.022;12.114;2023-04-24T08:56:49;6.50;;;1.53;;
18793;SDS011;29610;49.022;12.114;2023-04-24T08:59:46;6.80;;;1.83;;
18793;SDS011;29610;49.022;12.114;2023-04-24T09:02:35;6.60;;;1.80;;
18793;SDS011;29610;49.022;12.114;2023-04-24T09:05:26;6.50;;;1.63;;
18793;SDS011;29610;49.022;12.114;2023-04-24T09:08:17;6.00;;;1.60;;
18793;SDS011;29610;49.022;12.114;2023-04-24T09:11:07;7.10;;;1.50;;
18793;SDS011;29610;49.022;12.114;2023-04-24T09:13:58;9.47;;;1.87;;
18793;SDS011;29610;49.022;12.114;2023-04-24T09:16:49;5.93;;;1.37;;
18793;SDS011;29610;49.022;12.114;2023-04-24T09:19:38;6.03;;;1.70;;
18793;SDS011;29610;49.022;12.114;2023-04-24T09:22:30;8.27;;;1.67;;
18793;SDS011;29610;49.022;12.114;2023-04-24T09:25:19;6.77;;;1.60;;
18793;SDS011;29610;49.022;12.114;2023-04-24T09:28:09;6.40;;;1.80;;
18793;SDS011;29610;49.022;12.114;2023-04-24T09:31:02;7.30;;;1.80;;
18793;SDS011;29610;49.022;12.114;2023-04-24T09:33:56;6.63;;;1.83;;
18793;SDS011;29610;49.022;12.114;2023-04-24T09:36:49;6.63;;;1.10;;
18793;SDS011;29610;49.022;12.114;2023-04-24T09:39:40;7.77;;;1.83;;
18793;SDS011;29610;49.022;12.114;2023-04-24T09:42:31;6.13;;;1.40;;
18793;SDS011;29610;49.022;12.114;2023-04-24T09:45:20;6.83;;;1.40;;
18793;SDS011;29610;49.022;12.114;2023-04-24T09:48:09;7.60;;;2.13;;
18793;SDS011;29610;49.022;12.114;2023-04-24T09:50:59;5.60;;;1.23;;
18793;SDS011;29610;49.022;12.114;2023-04-24T09:53:50;5.70;;;1.20;;
18793;SDS011;29610;49.022;12.114;2023-04-24T09:56:45;6.30;;;1.33;;
18793;SDS011;29610;49.022;12.114;2023-04-24T09:59:41;6.00;;;1.27;;
18793;SDS011;29610;49.022;12.114;2023-04-24T10:02:34;6.90;;;1.40;;
18793;SDS011;29610;49.022;12.114;2023-04-24T10:05:24;6.13;;;1.40;;
18793;SDS011;29610;49.022;12.114;2023-04-24T10:08:16;6.37;;;1.50;;
18793;SDS011;29610;49.022;12.114;2023-04-24T10:11:06;6.67;;;1.47;;
18793;SDS011;29610;49.022;12.114;2023-04-24T10:13:59;7.63;;;2.07;;
18793;SDS011;29610;49.022;12.114;2023-04-24T10:16:49;8.20;;;2.70;;
18793;SDS011;29610;49.022;12.114;2023-04-24T10:19:43;6.80;;;1.53;;
18793;SDS011;29610;49.022;12.114;2023-04-24T10:22:33;6.83;;;1.80;;
18793;SDS011;29610;49.022;12.114;2023-04-24T10:25:26;9.73;;;1.90;;
18793;SDS011;29610;49.022;12.114;2023-04-24T10:28:18;5.83;;;1.27;;
18793;SDS011;29610;49.022;12.114;2023-04-24T10:31:10;6.10;;;1.43;;
18793;SDS011;29610;49.022;12.114;2023-04-24T10:34:01;6.13;;;1.50;;
18793;SDS011;29610;49.022;12.114;2023-04-24T10:36:52;6.20;;;1.70;;
18793;SDS011;29610;49.022;12.114;2023-04-24T10:39:47;9.20;;;1.77;;
18793;SDS011;29610;49.022;12.114;2023-04-24T10:42:39;7.13;;;1.50;;
18793;SDS011;29610;49.022;12.114;2023-04-24T10:45:30;5.70;;;1.30;;
18793;SDS011;29610;49.022;12.114;2023-04-24T10:48:26;5.70;;;1.23;;
18793;SDS011;29610;49.022;12.114;2023-04-24T10:51:14;6.57;;;1.80;;
18793;SDS011;29610;49.022;12.114;2023-04-24T10:54:05;6.03;;;1.40;;
18793;SDS011;29610;49.022;12.114;2023-04-24T10:57:27;6.10;;;1.37;;
18793;SDS011;29610;49.022;12.114;2023-04-24T11:00:20;7.27;;;1.80;;
18793;SDS011;29610;49.022;12.114;2023-04-24T11:03:25;7.90;;;1.53;;
18793;SDS011;29610;49.022;12.114;2023-04-24T11:06:16;6.47;;;1.53;;
18793;SDS011;29610;49.022;12.114;2023-04-24T11:09:18;8.10;;;1.63;;
18793;SDS011;29610;49.022;12.114;2023-04-24T11:12:10;6.40;;;1.50;;
18793;SDS011;29610;49.022;12.114;2023-04-24T11:15:01;7.00;;;2.00;;
18793;SDS011;29610;49.022;12.114;2023-04-24T11:17:51;6.07;;;1.53;;
18793;SDS011;29610;49.022;12.114;2023-04-24T11:20:46;6.87;;;1.87;;
18793;SDS011;29610;49.022;12.114;2023-04-24T11:23:35;7.80;;;1.80;;
18793;SDS011;29610;49.022;12.114;2023-04-24T11:26:25;6.30;;;1.57;;
18793;SDS011;29610;49.022;12.114;2023-04-24T11:29:19;7.07;;;1.63;;
18793;SDS011;29610;49.022;12.114;2023-04-24T11:32:14;7.80;;;2.50;;
18793;SDS011;29610;49.022;12.114;2023-04-24T11:35:08;7.73;;;2.40;;
18793;SDS011;29610;49.022;12.114;2023-04-24T11:38:08;10.30;;;1.70;;
18793;SDS011;29610;49.022;12.114;2023-04-24T11:41:10;7.07;;;2.07;;
18793;SDS011;29610;49.022;12.114;2023-04-24T11:44:01;8.23;;;2.07;;
18793;SDS011;29610;49.022;12.114;2023-04-24T11:46:55;6.33;;;1.70;;
18793;SDS011;29610;49.022;12.114;2023-04-24T11:49:45;8.33;;;1.50;;
18793;SDS011;29610;49.022;12.114;2023-04-24T11:52:36;5.93;;;1.53;;
18793;SDS011;29610;49.022;12.114;2023-04-24T11:55:29;8.20;;;1.13;;
18793;SDS011;29610;49.022;12.114;2023-04-24T11:58:20;6.33;;;1.40;;
18793;SDS011;29610;49.022;12.114;2023-04-24T12:01:09;5.57;;;1.10;;
18793;SDS011;29610;49.022;12.114;2023-04-24T12:03:59;6.17;;;1.47;;
18793;SDS011;29610;49.022;12.114;2023-04-24T12:07:01;8.00;;;1.40;;
18793;SDS011;29610;49.022;12.114;2023-04-24T12:09:56;8.73;;;1.83;;
18793;SDS011;29610;49.022;12.114;2023-04-24T12:12:49;7.03;;;1.40;;
18793;SDS011;29610;49.022;12.114;2023-04-24T12:15:39;6.47;;;1.50;;
18793;SDS011;29610;49.022;12.114;2023-04-24T12:18:28;7.10;;;2.07;;
18793;SDS011;29610;49.022;12.114;2023-04-24T12:21:18;6.40;;;1.77;;
18793;SDS011;29610;49.022;12.114;2023-04-24T12:24:10;6.93;;;1.40;;
18793;SDS011;29610;49.022;12.114;2023-04-24T12:26:59;7.63;;;1.70;;
18793;SDS011;29610;49.022;12.114;2023-04-24T12:29:53;7.10;;;1.80;;
18793;SDS011;29610;49.022;12.114;2023-04-24T12:32:45;7.63;;;1.70;;
18793;SDS011;29610;49.022;12.114;2023-04-24T12:35:36;6.77;;;1.70;;
18793;SDS011;29610;49.022;12.114;2023-04-24T12:38:29;8.03;;;1.70;;
18793;SDS011;29610;49.022;12.114;2023-04-24T12:41:18;6.70;;;1.70;;
18793;SDS011;29610;49.022;12.114;2023-04-24T12:44:10;6.70;;;1.40;;
18793;SDS011;29610;49.022;12.114;2023-04-24T12:47:01;6.47;;;1.23;;
18793;SDS011;29610;49.022;12.114;2023-04-24T12:49:50;7.10;;;1.37;;
18793;SDS011;29610;49.022;12.114;2023-04-24T12:52:39;9.13;;;1.30;;
18793;SDS011;29610;49.022;12.114;2023-04-24T12:55:31;11.90;;;1.70;;
18793;SDS011;29610;49.022;12.114;2023-04-24T12:58:20;6.50;;;1.20;;
18793;SDS011;29610;49.022;12.114;2023-04-24T13:01:09;6.60;;;1.47;;
18793;SDS011;29610;49.022;12.114;2023-04-24T13:03:59;6.87;;;1.23;;
18793;SDS011;29610;49.022;12.114;2023-04-24T13:06:49;8.90;;;1.33;;
18793;SDS011;29610;49.022;12.114;2023-04-24T13:09:38;7.67;;;1.40;;
18793;SDS011;29610;49.022;12.114;2023-04-24T13:12:27;6.53;;;1.50;;
18793;SDS011;29610;49.022;12.114;2023-04-24T13:15:16;7.33;;;1.70;;
18793;SDS011;29610;49.022;12.114;2023-04-24T13:18:06;7.07;;;1.97;;
18793;SDS011;29610;49.022;12.114;2023-04-24T13:20:56;6.40;;;1.20;;
18793;SDS011;29610;49.022;12.114;2023-04-24T13:23:45;6.83;;;1.63;;
18793;SDS011;29610;49.022;12.114;2023-04-24T13:26:34;6.40;;;1.20;;
18793;SDS011;29610;49.022;12.114;2023-04-24T13:29:24;6.10;;;1.30;;
18793;SDS011;29610;49.022;12.114;2023-04-24T13:32:13;6.53;;;1.70;;
18793;SDS011;29610;49.022;12.114;2023-04-24T13:35:04;7.43;;;1.60;;
18793;SDS011;29610;49.022;12.114;2023-04-24T13:37:54;8.00;;;1.70;;
18793;SDS011;29610;49.022;12.114;2023-04-24T13:40:43;6.70;;;1.40;;
18793;SDS011;29610;49.022;12.114;2023-04-24T13:43:33;7.80;;;1.80;;
18793;SDS011;29610;49.022;12.114;2023-04-24T13:46:23;5.90;;;1.30;;
18793;SDS011;29610;49.022;12.114;2023-04-24T13:49:13;10.50;;;3.60;;
18793;SDS011;29610;49.022;12.114;2023-04-24T13:52:04;8.90;;;1.97;;
18793;SDS011;29610;49.022;12.114;2023-04-24T13:54:54;6.73;;;1.43;;
18793;SDS011;29610;49.022;12.114;2023-04-24T13:57:44;8.27;;;2.70;;
18793;SDS011;29610;49.022;12.114;2023-04-24T14:00:33;6.83;;;1.70;;
18793;SDS011;29610;49.022;12.114;2023-04-24T14:03:22;7.57;;;2.17;;
18793;SDS011;29610;49.022;12.114;2023-04-24T14:06:11;8.80;;;2.00;;
18793;SDS011;29610;49.022;12.114;2023-04-24T14:09:00;7.07;;;1.50;;
18793;SDS011;29610;49.022;12.114;2023-04-24T14:11:51;6.70;;;1.83;;
18793;SDS011;29610;49.022;12.114;2023-04-24T14:14:40;6.60;;;1.20;;
18793;SDS011;29610;49.022;12.114;2023-04-24T14:17:29;6.53;;;1.10;;
18793;SDS011;29610;49.022;12.114;2023-04-24T14:20:19;7.43;;;1.60;;
18793;SDS011;29610;49.022;12.114;2023-04-24T14:23:08;12.40;;;1.40;;
18793;SDS011;29610;49.022;12.114;2023-04-24T14:25:58;6.00;;;1.50;;
18793;SDS011;29610;49.022;12.114;2023-04-24T14:28:48;6.20;;;1.50;;
18793;SDS011;29610;49.022;12.114;2023-04-24T14:31:40;8.00;;;1.80;;
18793;SDS011;29610;49.022;12.114;2023-04-24T14:34:29;6.93;;;1.60;;
18793;SDS011;29610;49.022;12.114;2023-04-24T14:37:18;6.10;;;1.60;;
18793;SDS011;29610;49.022;12.114;2023-04-24T14:40:09;7.87;;;2.20;;
18793;SDS011;29610;49.022;12.114;2023-04-24T14:43:19;6.40;;;2.00;;
18793;SDS011;29610;49.022;12.114;2023-04-24T14:46:09;8.87;;;1.90;;
18793;SDS011;29610;49.022;12.114;2023-04-24T14:49:00;6.00;;;1.50;;
18793;SDS011;29610;49.022;12.114;2023-04-24T14:51:49;6.07;;;1.60;;
18793;SDS011;29610;49.022;12.114;2023-04-24T14:54:38;6.50;;;1.80;;
18793;SDS011;29610;49.022;12.114;2023-04-24T14:57:27;6.70;;;1.90;;
18793;SDS011;29610;49.022;12.114;2023-04-24T15:00:17;6.67;;;1.93;;
18793;SDS011;29610;49.022;12.114;2023-04-24T15:03:09;6.67;;;1.57;;
18793;SDS011;29610;49.022;12.114;2023-04-24T15:05:59;6.47;;;2.13;;
18793;SDS011;29610;49.022;12.114;2023-04-24T15:08:48;6.10;;;1.50;;
18793;SDS011;29610;49.022;12.114;2023-04-24T15:11:38;5.70;;;1.30;;
18793;SDS011;29610;49.022;12.114;2023-04-24T15:14:28;6.17;;;1.63;;
18793;SDS011;29610;49.022;12.114;2023-04-24T15:17:17;6.10;;;1.60;;
18793;SDS011;29610;49.022;12.114;2023-04-24T15:20:08;5.90;;;1.40;;
18793;SDS011;29610;49.022;12.114;2023-04-24T15:22:58;7.13;;;1.67;;
18793;SDS011;29610;49.022;12.114;2023-04-24T15:25:47;7.57;;;1.60;;
18793;SDS011;29610;49.022;12.114;2023-04-24T15:28:36;7.13;;;1.70;;
18793;SDS011;29610;49.022;12.114;2023-04-24T15:31:25;11.10;;;3.73;;
18793;SDS011;29610;49.022;12.114;2023-04-24T15:34:14;9.23;;;3.20;;
18793;SDS011;29610;49.022;12.114;2023-04-24T15:37:04;8.83;;;2.60;;
18793;SDS011;29610;49.022;12.114;2023-04-24T15:39:53;6.87;;;1.87;;
18793;SDS011;29610;49.022;12.114;2023-04-24T15:42:42;5.90;;;1.60;;
18793;SDS011;29610;49.022;12.114;2023-04-24T15:45:31;8.03;;;1.90;;
18793;SDS011;29610;49.022;12.114;2023-04-24T15:48:21;5.80;;;1.50;;
18793;SDS011;29610;49.022;12.114;2023-04-24T15:51:10;6.00;;;1.70;;
18793;SDS011;29610;49.022;12.114;2023-04-24T15:54:00;7.40;;;2.07;;
18793;SDS011;29610;49.022;12.114;2023-04-24T15:56:49;5.90;;;1.47;;
18793;SDS011;29610;49.022;12.114;2023-04-24T15:59:38;9.20;;;2.10;;
18793;SDS011;29610;49.022;12.114;2023-04-24T16:02:28;6.00;;;1.40;;
18793;SDS011;29610;49.022;12.114;2023-04-24T16:05:17;7.17;;;1.63;;
18793;SDS011;29610;49.022;12.114;2023-04-24T16:08:12;6.10;;;1.63;;
18793;SDS011;29610;49.022;12.114;2023-04-24T16:11:02;6.97;;;1.90;;
18793;SDS011;29610;49.022;12.114;2023-04-24T16:13:52;7.77;;;2.70;;
18793;SDS011;29610;49.022;12.114;2023-04-24T16:16:41;5.90;;;1.60;;
18793;SDS011;29610;49.022;12.114;2023-04-24T16:19:30;6.80;;;1.60;;
18793;SDS011;29610;49.022;12.114;2023-04-24T16:22:20;6.20;;;1.77;;
18793;SDS011;29610;49.022;12.114;2023-04-24T16:25:10;7.57;;;1.63;;
18793;SDS011;29610;49.022;12.114;2023-04-24T16:28:00;6.00;;;1.60;;
18793;SDS011;29610;49.022;12.114;2023-04-24T16:30:49;6.93;;;2.10;;
18793;SDS011;29610;49.022;12.114;2023-04-24T16:33:38;6.30;;;1.90;;
18793;SDS011;29610;49.022;12.114;2023-04-24T16:36:28;7.37;;;1.97;;
18793;SDS011;29610;49.022;12.114;2023-04-24T16:39:17;6.30;;;1.80;;
18793;SDS011;29610;49.022;12.114;2023-04-24T16:42:09;5.97;;;1.77;;
18793;SDS011;29610;49.022;12.114;2023-04-24T16:45:04;7.27;;;2.23;;